sensor_id;sensor_type;location;lat;lon;timestamp;pressure;altitude;pressure_sealevel;temperature;humidity
54248;BME280;40161;39.768;2.722;2024-01-11T00:25:15;101300.50;;;10.35;100.00
54248;BME280;40161;39.768;2.722;2024-01-11T00:27:40;101276.91;;;10.18;100.00
54248;BME280;40161;39.768;2.722;2024-01-11T00:30:06;101266.44;;;10.08;100.00
54248;BME280;40161;39.768;2.722;2024-01-11T00:32:32;101281.34;;;10.22;100.00
54248;BME280;40161;39.768;2.722;2024-01-11T00:37:23;101269.59;;;10.22;100.00
54248;BME280;40161;39.768;2.722;2024-01-11T00:39:50;101278.22;;;10.36;100.00
54248;BME280;40161;39.768;2.722;2024-01-11T00:42:16;101229.13;;;10.19;100.00
54248;BME280;40161;39.768;2.722;2024-01-11T00:49:32;101252.03;;;10.55;100.00
54248;BME280;40161;39.768;2.722;2024-01-11T01:31:08;101274.84;;;10.27;100.00
54248;BME280;40161;39.768;2.722;2024-01-11T01:33:34;101261.03;;;10.11;100.00
54248;BME280;40161;39.768;2.722;2024-01-11T01:36:00;101273.84;;;10.07;100.00
54248;BME280;40161;39.768;2.722;2024-01-11T01:38:26;101277.94;;;10.26;100.00
54248;BME280;40161;39.768;2.722;2024-01-11T01:40:51;101261.59;;;10.17;100.00
54248;BME280;40161;39.768;2.722;2024-01-11T01:43:17;101289.19;;;10.36;100.00
54248;BME280;40161;39.768;2.722;2024-01-11T08:27:39;101366.25;;;9.66;100.00
54248;BME280;40161;39.768;2.722;2024-01-11T08:30:07;101385.22;;;9.59;100.00
54248;BME280;40161;39.768;2.722;2024-01-11T08:32:33;101408.03;;;9.63;100.00
54248;BME280;40161;39.768;2.722;2024-01-11T09:00:30;101435.22;;;9.93;100.00
54248;BME280;40161;39.768;2.722;2024-01-11T09:03:14;101463.19;;;10.11;100.00
54248;BME280;40161;39.768;2.722;2024-01-11T09:05:42;101461.59;;;10.10;100.00
54248;BME280;40161;39.768;2.722;2024-01-11T09:08:08;101450.06;;;10.04;100.00
54248;BME280;40161;39.768;2.722;2024-01-11T09:10:33;101454.97;;;10.11;100.00
54248;BME280;40161;39.768;2.722;2024-01-11T09:24:17;101493.84;;;10.13;100.00
54248;BME280;40161;39.768;2.722;2024-01-11T09:26:42;101484.91;;;10.04;100.00
54248;BME280;40161;39.768;2.722;2024-01-11T09:29:08;101514.75;;;10.30;100.00
54248;BME280;40161;39.768;2.722;2024-01-11T09:31:34;101519.22;;;10.34;100.00
54248;BME280;40161;39.768;2.722;2024-01-11T09:33:59;101514.50;;;10.35;100.00
54248;BME280;40161;39.768;2.722;2024-01-11T09:36:25;101496.22;;;10.14;100.00
54248;BME280;40161;39.768;2.722;2024-01-11T11:51:11;101486.72;;;10.24;100.00
54248;BME280;40161;39.768;2.722;2024-01-11T11:53:37;101479.53;;;10.19;100.00
54248;BME280;40161;39.768;2.722;2024-01-11T11:56:04;101486.63;;;10.20;100.00
54248;BME280;40161;39.768;2.722;2024-01-11T11:58:31;101474.41;;;10.30;100.00
54248;BME280;40161;39.768;2.722;2024-01-11T13:29:22;101486.97;;;10.31;100.00
54248;BME280;40161;39.768;2.722;2024-01-11T13:53:45;101487.41;;;10.21;100.00
54248;BME280;40161;39.768;2.722;2024-01-11T13:56:11;101469.47;;;10.11;100.00
54248;BME280;40161;39.768;2.722;2024-01-11T13:58:37;101469.13;;;10.25;100.00
54248;BME280;40161;39.768;2.722;2024-01-11T14:01:03;101488.09;;;10.42;100.00
54248;BME280;40161;39.768;2.722;2024-01-11T14:03:29;101484.66;;;10.45;100.00
54248;BME280;40161;39.768;2.722;2024-01-11T14:05:55;101497.09;;;10.55;100.00
54248;BME280;40161;39.768;2.722;2024-01-11T14:08:21;101455.06;;;10.14;100.00
54248;BME280;40161;39.768;2.722;2024-01-11T14:10:46;101476.91;;;10.35;100.00
54248;BME280;40161;39.768;2.722;2024-01-11T14:13:12;101456.34;;;10.05;100.00
54248;BME280;40161;39.768;2.722;2024-01-11T14:15:38;101416.38;;;9.79;100.00
54248;BME280;40161;39.768;2.722;2024-01-11T14:18:05;101489.38;;;10.08;100.00
54248;BME280;40161;39.768;2.722;2024-01-11T14:20:32;101515.19;;;10.19;100.00
54248;BME280;40161;39.768;2.722;2024-01-11T14:22:59;101514.19;;;10.12;100.00
54248;BME280;40161;39.768;2.722;2024-01-11T14:25:25;101515.63;;;10.21;100.00
54248;BME280;40161;39.768;2.722;2024-01-11T14:27:50;101473.94;;;9.79;100.00
54248;BME280;40161;39.768;2.722;2024-01-11T14:30:16;101513.81;;;10.13;100.00
54248;BME280;40161;39.768;2.722;2024-01-11T14:32:42;101454.66;;;9.75;100.00
54248;BME280;40161;39.768;2.722;2024-01-11T14:35:09;101516.00;;;10.20;100.00
54248;BME280;40161;39.768;2.722;2024-01-11T14:37:36;101522.31;;;10.33;100.00
54248;BME280;40161;39.768;2.722;2024-01-11T14:40:03;101511.22;;;10.29;100.00
54248;BME280;40161;39.768;2.722;2024-01-11T14:42:29;101507.19;;;10.14;100.00
54248;BME280;40161;39.768;2.722;2024-01-11T14:44:58;101513.00;;;10.25;100.00
54248;BME280;40161;39.768;2.722;2024-01-11T14:47:24;101531.22;;;10.30;100.00
54248;BME280;40161;39.768;2.722;2024-01-11T14:49:51;101498.97;;;10.14;100.00
54248;BME280;40161;39.768;2.722;2024-01-11T14:52:17;101506.28;;;10.22;100.00
54248;BME280;40161;39.768;2.722;2024-01-11T14:54:45;101478.16;;;10.01;100.00
54248;BME280;40161;39.768;2.722;2024-01-11T14:57:11;101492.13;;;9.96;100.00
54248;BME280;40161;39.768;2.722;2024-01-11T14:59:38;101515.75;;;10.01;100.00
54248;BME280;40161;39.768;2.722;2024-01-11T15:02:04;101496.81;;;9.71;100.00
54248;BME280;40161;39.768;2.722;2024-01-11T15:04:30;101523.53;;;9.86;100.00
54248;BME280;40161;39.768;2.722;2024-01-11T15:06:56;101531.66;;;9.95;100.00
54248;BME280;40161;39.768;2.722;2024-01-11T15:09:22;101527.97;;;9.91;100.00
54248;BME280;40161;39.768;2.722;2024-01-11T15:11:47;101541.03;;;10.06;100.00
54248;BME280;40161;39.768;2.722;2024-01-11T15:14:13;101546.84;;;10.05;100.00
54248;BME280;40161;39.768;2.722;2024-01-11T15:16:39;101532.00;;;9.93;100.00
54248;BME280;40161;39.768;2.722;2024-01-11T15:19:05;101503.88;;;9.72;100.00
54248;BME280;40161;39.768;2.722;2024-01-11T16:11:56;101588.91;;;10.21;100.00
54248;BME280;40161;39.768;2.722;2024-01-11T16:14:22;101589.38;;;10.23;100.00
54248;BME280;40161;39.768;2.722;2024-01-11T16:16:48;101581.47;;;10.09;100.00
54248;BME280;40161;39.768;2.722;2024-01-11T16:19:13;101601.72;;;10.17;100.00
54248;BME280;40161;39.768;2.722;2024-01-11T17:52:20;101725.91;;;9.72;100.00
54248;BME280;40161;39.768;2.722;2024-01-11T17:55:17;101745.72;;;9.90;100.00
54248;BME280;40161;39.768;2.722;2024-01-11T18:47:11;101792.13;;;9.53;100.00
54248;BME280;40161;39.768;2.722;2024-01-11T18:49:37;101797.53;;;9.41;100.00
54248;BME280;40161;39.768;2.722;2024-01-11T19:01:40;101811.72;;;9.43;100.00
54248;BME280;40161;39.768;2.722;2024-01-11T19:04:06;101811.09;;;9.37;100.00
54248;BME280;40161;39.768;2.722;2024-01-11T19:06:32;101799.94;;;9.42;100.00
54248;BME280;40161;39.768;2.722;2024-01-11T19:08:58;101802.09;;;9.37;100.00
54248;BME280;40161;39.768;2.722;2024-01-11T19:11:24;101820.00;;;9.55;100.00
54248;BME280;40161;39.768;2.722;2024-01-11T19:13:51;101811.19;;;9.49;100.00
54248;BME280;40161;39.768;2.722;2024-01-11T19:19:43;101832.09;;;9.33;100.00
54248;BME280;40161;39.768;2.722;2024-01-11T19:22:09;101805.59;;;9.16;100.00
54248;BME280;40161;39.768;2.722;2024-01-11T19:24:35;101808.59;;;9.23;100.00
54248;BME280;40161;39.768;2.722;2024-01-11T19:27:01;101833.16;;;9.41;100.00
54248;BME280;40161;39.768;2.722;2024-01-11T19:29:27;101801.38;;;9.19;100.00
54248;BME280;40161;39.768;2.722;2024-01-11T19:31:56;101827.34;;;9.42;100.00
54248;BME280;40161;39.768;2.722;2024-01-11T19:34:21;101829.28;;;9.42;100.00
54248;BME280;40161;39.768;2.722;2024-01-11T19:46:05;101828.31;;;9.46;100.00
54248;BME280;40161;39.768;2.722;2024-01-11T21:52:49;101920.41;;;9.21;100.00
54248;BME280;40161;39.768;2.722;2024-01-11T21:59:04;101926.53;;;9.27;100.00
54248;BME280;40161;39.768;2.722;2024-01-11T22:01:30;101916.06;;;9.29;100.00
54248;BME280;40161;39.768;2.722;2024-01-11T23:26:11;101898.19;;;9.61;100.00
54248;BME280;40161;39.768;2.722;2024-01-11T23:28:37;101909.84;;;9.79;100.00
